Time;durP1;ratioP1;P1;durP2;ratioP2;P2;SDS_P1;SDS_P2;PMS_P1;PMS_P2;Temp;Humidity;BMP_temperature;BMP_pressure;BME280_temperature;BME280_humidity;BME280_pressure;Samples;Min_cycle;Max_cycle;Signal;HPM_P1;HPM_P2
2022/11/18 00:01:16;;;;;;;49.25;29.02;;;;;;;;;;6163397;23;20058;-77
2022/11/18 00:03:42;;;;;;;44.67;28.35;;;;;;;;;;6188012;23;20013;-76
2022/11/18 00:06:12;;;;;;;48.92;28.50;;;;;;;;;;6214022;23;20004;-78
2022/11/18 00:08:37;;;;;;;47.80;28.33;;;;;;;;;;6214512;23;20016;-78
2022/11/18 00:11:10;;;;;;;48.03;27.20;;;;;;;;;;6217285;23;19996;-77
2022/11/18 00:16:22;;;;;;;44.15;26.23;;;;;;;;;;6215555;23;20015;-77
2022/11/18 00:18:48;;;;;;;41.60;23.60;;;;;;;;;;6215867;23;19997;-76
2022/11/18 00:21:13;;;;;;;42.33;22.65;;;;;;;;;;6213690;23;20011;-76
2022/11/18 00:23:39;;;;;;;39.35;21.58;;;;;;;;;;6188105;23;20011;-79
2022/11/18 00:26:11;;;;;;;35.50;20.88;;;;;;;;;;6214723;23;20005;-76
2022/11/18 00:28:37;;;;;;;35.83;20.58;;;;;;;;;;6188245;23;20008;-76
2022/11/18 00:31:04;;;;;;;38.75;18.55;;;;;;;;;;6191853;23;20012;-76
2022/11/18 00:33:30;;;;;;;32.55;18.67;;;;;;;;;;6201097;23;20099;-77
2022/11/18 00:35:55;;;;;;;34.28;20.35;;;;;;;;;;6214585;23;20005;-77
2022/11/18 00:38:21;;;;;;;34.45;20.55;;;;;;;;;;6214893;23;20339;-76
2022/11/18 00:40:46;;;;;;;23.30;14.52;;;;;;;;;;6214153;23;20000;-77
2022/11/18 00:43:12;;;;;;;20.23;12.35;;;;;;;;;;6213846;23;20004;-77
2022/11/18 00:45:37;;;;;;;16.00;10.10;;;;;;;;;;6213760;23;20001;-77
2022/11/18 00:48:03;;;;;;;22.77;10.40;;;;;;;;;;6213742;23;20095;-76
2022/11/18 00:50:29;;;;;;;18.92;10.68;;;;;;;;;;6213502;23;20004;-76
2022/11/18 00:52:54;;;;;;;19.17;10.70;;;;;;;;;;6190615;23;20036;-77
2022/11/18 00:55:20;;;;;;;20.67;11.55;;;;;;;;;;6215458;23;20331;-76
2022/11/18 00:57:45;;;;;;;20.52;11.50;;;;;;;;;;6188493;23;20005;-78
2022/11/18 01:00:11;;;;;;;21.98;11.52;;;;;;;;;;6214251;23;20127;-77
2022/11/18 01:02:37;;;;;;;24.85;12.10;;;;;;;;;;6213818;23;19996;-77
2022/11/18 01:05:03;;;;;;;18.55;10.43;;;;;;;;;;6187198;23;20004;-76
2022/11/18 01:07:28;;;;;;;15.02;9.40;;;;;;;;;;6214064;23;20011;-76
2022/11/18 01:09:54;;;;;;;15.70;9.25;;;;;;;;;;6213867;23;20005;-77
2022/11/18 01:15:04;;;;;;;17.45;9.23;;;;;;;;;;6201767;23;20016;-76
2022/11/18 01:17:30;;;;;;;15.98;8.52;;;;;;;;;;6188359;23;20001;-77
2022/11/18 01:19:55;;;;;;;15.05;8.80;;;;;;;;;;6214376;23;20035;-77
2022/11/18 01:22:21;;;;;;;11.93;8.13;;;;;;;;;;6214393;23;20430;-77
2022/11/18 01:24:46;;;;;;;14.75;9.35;;;;;;;;;;6213456;23;20340;-77
2022/11/18 01:27:11;;;;;;;14.48;8.45;;;;;;;;;;6213924;23;20091;-77
2022/11/18 01:29:37;;;;;;;18.13;9.02;;;;;;;;;;6212562;23;20004;-76
2022/11/18 01:32:02;;;;;;;13.27;8.93;;;;;;;;;;6190493;23;20017;-77
2022/11/18 01:34:28;;;;;;;15.13;9.35;;;;;;;;;;6229294;23;20356;-79
2022/11/18 01:36:55;;;;;;;13.00;8.88;;;;;;;;;;6190598;23;20439;-78
2022/11/18 01:39:21;;;;;;;15.75;9.15;;;;;;;;;;6188676;23;20087;-78
2022/11/18 01:41:46;;;;;;;14.15;9.32;;;;;;;;;;6187371;23;20005;-79
2022/11/18 01:44:49;;;;;;;16.15;9.77;;;;;;;;;;6213889;23;20000;-77
2022/11/18 01:47:14;;;;;;;14.43;9.43;;;;;;;;;;6213288;23;20424;-77
2022/11/18 01:49:40;;;;;;;16.85;10.43;;;;;;;;;;6187202;23;20028;-77
2022/11/18 01:52:05;;;;;;;14.23;10.15;;;;;;;;;;6214420;23;20309;-76
2022/11/18 01:54:36;;;;;;;15.00;10.82;;;;;;;;;;6193096;23;20004;-79
2022/11/18 01:57:04;;;;;;;19.30;10.80;;;;;;;;;;6191598;23;20087;-77
2022/11/18 01:59:31;;;;;;;18.77;10.48;;;;;;;;;;6188626;23;20001;-77
2022/11/18 02:01:59;;;;;;;17.05;11.73;;;;;;;;;;6213473;23;20004;-77
2022/11/18 02:04:25;;;;;;;19.30;11.48;;;;;;;;;;6187676;23;20001;-76
2022/11/18 02:06:51;;;;;;;17.98;11.30;;;;;;;;;;6162343;23;20008;-78
2022/11/18 02:09:16;;;;;;;18.35;11.60;;;;;;;;;;6187865;23;20092;-77
2022/11/18 02:11:53;;;;;;;25.90;12.68;;;;;;;;;;6162444;23;20363;-76
2022/11/18 02:14:48;;;;;;;20.60;12.73;;;;;;;;;;6215371;23;20001;-77
2022/11/18 02:17:20;;;;;;;22.38;13.00;;;;;;;;;;6194651;23;20004;-77
2022/11/18 02:19:45;;;;;;;18.83;12.60;;;;;;;;;;6187575;23;20005;-77
2022/11/18 02:22:11;;;;;;;25.05;13.55;;;;;;;;;;6214149;23;20507;-78
2022/11/18 02:24:45;;;;;;;20.45;12.75;;;;;;;;;;6214026;23;20482;-77
2022/11/18 02:27:26;;;;;;;27.73;11.77;;;;;;;;;;6163720;23;20000;-77
2022/11/18 02:29:55;;;;;;;;;;;;;;;;;;6187829;23;20016;-77
2022/11/18 02:32:32;;;;;;;24.67;14.60;;;;;;;;;;6214265;23;20251;-78
2022/11/18 02:35:24;;;;;;;28.98;16.27;;;;;;;;;;6162886;23;20012;-79
2022/11/18 02:38:00;;;;;;;29.13;16.45;;;;;;;;;;6171398;23;20078;-77
2022/11/18 02:40:31;;;;;;;33.45;16.67;;;;;;;;;;6189159;23;20004;-77
2022/11/18 02:43:03;;;;;;;25.38;15.57;;;;;;;;;;6162697;23;20064;-77
2022/11/18 02:45:28;;;;;;;21.50;13.50;;;;;;;;;;6164541;23;20082;-77
2022/11/18 02:47:54;;;;;;;25.92;15.02;;;;;;;;;;6191397;23;20009;-77
2022/11/18 02:50:22;;;;;;;25.98;15.43;;;;;;;;;;6203845;23;20008;-77
2022/11/18 02:52:49;;;;;;;26.75;14.77;;;;;;;;;;6197422;23;20011;-77
2022/11/18 02:55:14;;;;;;;21.23;14.45;;;;;;;;;;6195395;23;20420;-77
2022/11/18 02:57:40;;;;;;;28.55;15.27;;;;;;;;;;6198683;23;20004;-76
2022/11/18 03:00:06;;;;;;;25.63;15.50;;;;;;;;;;6199107;23;20441;-78
2022/11/18 03:02:43;;;;;;;23.88;15.40;;;;;;;;;;6219192;23;20351;-78
2022/11/18 03:05:17;;;;;;;25.13;15.45;;;;;;;;;;6219323;23;20000;-77
2022/11/18 03:07:43;;;;;;;26.73;15.65;;;;;;;;;;6193997;23;20040;-77
2022/11/18 03:10:08;;;;;;;27.23;15.98;;;;;;;;;;6219385;23;19996;-78
2022/11/18 03:13:01;;;;;;;27.75;16.00;;;;;;;;;;6193698;23;20004;-77
2022/11/18 03:15:42;;;;;;;30.20;17.08;;;;;;;;;;6246710;23;20000;-77
2022/11/18 03:18:17;;;;;;;;;;;;;;;;;;6220897;23;20070;-77
2022/11/18 03:21:35;;;;;;;31.52;17.00;;;;;;;;;;6219304;23;19973;-77
2022/11/18 03:24:31;;;;;;;30.65;17.50;;;;;;;;;;6232134;23;20011;-77
2022/11/18 03:27:21;;;;;;;27.92;17.75;;;;;;;;;;6251728;23;20027;-78
2022/11/18 03:30:16;;;;;;;28.23;17.80;;;;;;;;;;6219858;23;20001;-77
2022/11/18 03:32:43;;;;;;;29.08;17.65;;;;;;;;;;6220149;23;20008;-77
2022/11/18 03:35:11;;;;;;;29.50;18.45;;;;;;;;;;6194343;23;20023;-77
2022/11/18 03:37:37;;;;;;;31.83;19.45;;;;;;;;;;6206617;23;20011;-77
2022/11/18 03:40:10;;;;;;;36.22;20.55;;;;;;;;;;6225027;23;19996;-77
2022/11/18 03:43:05;;;;;;;34.15;21.98;;;;;;;;;;6219470;23;20008;-78
2022/11/18 03:45:54;;;;;;;39.00;23.38;;;;;;;;;;6219574;23;20050;-78
2022/11/18 03:48:25;;;;;;;41.55;24.52;;;;;;;;;;6244560;23;20140;-79
2022/11/18 03:51:01;;;;;;;44.63;24.23;;;;;;;;;;6218251;23;20339;-78
2022/11/18 03:53:30;;;;;;;39.97;25.13;;;;;;;;;;6219727;23;20004;-79
2022/11/18 03:56:04;;;;;;;43.63;26.17;;;;;;;;;;6192435;23;20111;-78
2022/11/18 03:58:32;;;;;;;46.75;25.20;;;;;;;;;;6222672;23;20454;-78
2022/11/18 04:01:04;;;;;;;40.40;24.95;;;;;;;;;;6224639;23;20483;-78
2022/11/18 04:03:29;;;;;;;45.92;26.67;;;;;;;;;;6193790;23;20004;-78
2022/11/18 04:06:00;;;;;;;48.78;28.05;;;;;;;;;;6218475;23;20003;-77
2022/11/18 04:08:29;;;;;;;50.45;27.83;;;;;;;;;;6218852;23;20011;-78
2022/11/18 04:11:08;;;;;;;50.95;28.08;;;;;;;;;;6218519;23;20000;-78
2022/11/18 04:13:34;;;;;;;51.63;29.10;;;;;;;;;;6194835;23;20062;-78
2022/11/18 04:15:59;;;;;;;48.50;28.05;;;;;;;;;;6193005;23;20406;-78
2022/11/18 04:18:25;;;;;;;57.33;28.33;;;;;;;;;;6244427;23;20427;-78
2022/11/18 04:20:50;;;;;;;50.22;27.98;;;;;;;;;;6254658;23;20044;-78
2022/11/18 04:23:16;;;;;;;51.35;29.20;;;;;;;;;;6245109;23;20054;-78
2022/11/18 04:25:41;;;;;;;67.63;34.80;;;;;;;;;;6218153;23;20004;-77
2022/11/18 04:28:07;;;;;;;67.32;36.40;;;;;;;;;;6218582;23;20000;-77
2022/11/18 04:30:32;;;;;;;67.85;36.70;;;;;;;;;;6245129;23;20083;-78
2022/11/18 04:32:58;;;;;;;62.45;35.50;;;;;;;;;;6244406;23;20000;-79
2022/11/18 04:35:24;;;;;;;62.97;36.70;;;;;;;;;;6244550;23;20340;-77
2022/11/18 04:37:49;;;;;;;61.50;34.58;;;;;;;;;;6244254;23;20022;-77
2022/11/18 04:40:15;;;;;;;59.45;34.75;;;;;;;;;;6249857;23;20011;-79
2022/11/18 04:42:41;;;;;;;62.08;35.22;;;;;;;;;;6247749;23;20036;-78
2022/11/18 04:45:12;;;;;;;58.20;34.05;;;;;;;;;;6193566;23;20007;-78
2022/11/18 04:47:37;;;;;;;56.17;32.97;;;;;;;;;;6245093;23;20012;-78
2022/11/18 04:50:03;;;;;;;61.92;34.55;;;;;;;;;;6235682;23;20040;-78
2022/11/18 04:52:29;;;;;;;59.85;34.15;;;;;;;;;;6187328;23;20009;-78
2022/11/18 04:54:54;;;;;;;56.25;34.67;;;;;;;;;;6214071;23;20001;-78
2022/11/18 04:57:20;;;;;;;57.58;31.05;;;;;;;;;;6213528;23;20005;-78
2022/11/18 04:59:45;;;;;;;54.03;29.83;;;;;;;;;;6187300;23;20340;-78
2022/11/18 05:02:11;;;;;;;70.13;41.50;;;;;;;;;;6227707;23;20004;-78
2022/11/18 05:07:50;;;;;;;65.93;39.13;;;;;;;;;;6144240;22;20030;-83
2022/11/18 05:13:20;;;;;;;56.63;33.30;;;;;;;;;;6156217;22;20078;-80
2022/11/18 05:15:45;;;;;;;55.55;33.28;;;;;;;;;;6218061;23;20012;-79
2022/11/18 05:18:11;;;;;;;56.58;33.45;;;;;;;;;;6192138;23;20382;-79
2022/11/18 05:20:37;;;;;;;57.42;31.92;;;;;;;;;;6244410;23;20011;-80
2022/11/18 05:23:02;;;;;;;50.75;31.02;;;;;;;;;;6229072;23;20008;-78
2022/11/18 05:25:27;;;;;;;50.50;29.42;;;;;;;;;;6244997;23;20083;-79
2022/11/18 05:27:53;;;;;;;51.88;30.10;;;;;;;;;;6217816;23;20004;-80
2022/11/18 05:30:19;;;;;;;51.95;30.70;;;;;;;;;;6244861;23;20466;-79
2022/11/18 05:32:44;;;;;;;58.58;32.80;;;;;;;;;;6217280;23;20076;-79
2022/11/18 05:35:10;;;;;;;56.58;31.40;;;;;;;;;;6243754;23;20000;-80
2022/11/18 05:37:35;;;;;;;63.55;32.50;;;;;;;;;;6167521;23;20538;-80
2022/11/18 05:40:01;;;;;;;51.63;30.48;;;;;;;;;;6244307;23;20000;-81
2022/11/18 05:45:10;;;;;;;53.17;29.25;;;;;;;;;;6255103;23;20550;-80
2022/11/18 05:47:58;;;;;;;47.55;27.33;;;;;;;;;;6244008;23;20008;-79
2022/11/18 05:50:21;;;;;;;53.10;27.42;;;;;;;;;;6220775;23;20008;-80
2022/11/18 05:52:47;;;;;;;53.60;27.15;;;;;;;;;;6241672;23;20063;-81
2022/11/18 05:55:13;;;;;;;56.38;30.45;;;;;;;;;;6245104;23;20007;-80
2022/11/18 05:57:47;;;;;;;55.60;29.58;;;;;;;;;;6191363;23;20095;-80
2022/11/18 06:00:17;;;;;;;59.33;30.27;;;;;;;;;;6187924;23;20004;-80
2022/11/18 06:03:34;;;;;;;56.90;30.42;;;;;;;;;;6219086;23;20004;-81
2022/11/18 06:06:04;;;;;;;47.95;26.08;;;;;;;;;;6214007;23;20011;-79
2022/11/18 06:08:36;;;;;;;51.25;27.92;;;;;;;;;;6192128;23;20012;-80
2022/11/18 06:11:02;;;;;;;55.60;27.08;;;;;;;;;;6215976;23;20062;-78
2022/11/18 06:13:33;;;;;;;42.58;25.15;;;;;;;;;;6215003;23;20008;-79
2022/11/18 06:15:59;;;;;;;41.22;21.83;;;;;;;;;;6215937;23;20070;-78
2022/11/18 06:18:30;;;;;;;39.75;21.20;;;;;;;;;;6243539;23;20004;-80
2022/11/18 06:21:00;;;;;;;34.15;19.40;;;;;;;;;;6191156;23;20008;-80
2022/11/18 06:23:31;;;;;;;40.47;21.57;;;;;;;;;;6220024;23;20049;-81
2022/11/18 06:25:56;;;;;;;36.20;19.73;;;;;;;;;;6218567;23;20011;-81
2022/11/18 06:28:22;;;;;;;34.72;20.75;;;;;;;;;;6194036;23;20084;-84
2022/11/18 06:30:47;;;;;;;35.45;20.63;;;;;;;;;;6191330;23;20012;-82
2022/11/18 06:33:13;;;;;;;36.33;20.45;;;;;;;;;;6192408;23;19996;-80
2022/11/18 06:35:40;;;;;;;40.83;22.30;;;;;;;;;;6217272;23;20062;-82
2022/11/18 06:38:06;;;;;;;42.92;20.63;;;;;;;;;;6218030;23;20012;-80
2022/11/18 06:40:34;;;;;;;31.90;19.27;;;;;;;;;;6246746;23;20008;-81
2022/11/18 06:48:49;;;;;;;31.50;18.80;;;;;;;;;;6206491;23;20071;-81
2022/11/18 06:51:46;;;;;;;32.78;18.98;;;;;;;;;;6167734;23;20028;-82
2022/11/18 06:54:18;;;;;;;30.63;17.98;;;;;;;;;;6194616;23;20008;-79
2022/11/18 06:56:46;;;;;;;29.63;18.23;;;;;;;;;;6213818;23;20439;-79
2022/11/18 06:59:12;;;;;;;30.10;17.63;;;;;;;;;;6188778;23;20027;-80
2022/11/18 07:01:40;;;;;;;28.95;17.83;;;;;;;;;;6250450;23;20004;-80
2022/11/18 07:04:06;;;;;;;31.73;18.27;;;;;;;;;;6243498;23;19996;-81
2022/11/18 07:06:32;;;;;;;32.30;20.20;;;;;;;;;;6243172;23;20004;-80
2022/11/18 07:08:59;;;;;;;36.65;22.77;;;;;;;;;;6214555;23;20115;-79
2022/11/18 07:11:27;;;;;;;41.08;24.55;;;;;;;;;;6241966;23;20066;-81
2022/11/18 07:13:52;;;;;;;39.63;22.73;;;;;;;;;;6191199;23;20008;-78
2022/11/18 07:16:20;;;;;;;36.42;20.35;;;;;;;;;;6218824;23;20044;-80
2022/11/18 07:18:49;;;;;;;33.95;20.35;;;;;;;;;;6193271;23;20031;-79
2022/11/18 07:21:16;;;;;;;29.42;19.33;;;;;;;;;;6222837;23;20007;-79
2022/11/18 07:23:42;;;;;;;28.10;17.27;;;;;;;;;;6251399;23;20061;-81
2022/11/18 07:26:08;;;;;;;27.58;17.23;;;;;;;;;;6217399;23;20032;-78
2022/11/18 07:28:33;;;;;;;27.40;17.60;;;;;;;;;;6244282;23;20344;-81
2022/11/18 07:31:06;;;;;;;27.92;17.58;;;;;;;;;;6244159;23;20032;-78
2022/11/18 07:33:32;;;;;;;27.10;16.98;;;;;;;;;;6193973;23;20000;-80
2022/11/18 07:36:08;;;;;;;25.77;15.25;;;;;;;;;;6218731;23;20011;-79
2022/11/18 07:38:34;;;;;;;23.65;15.63;;;;;;;;;;6246204;23;20004;-78
2022/11/18 07:41:08;;;;;;;23.60;15.48;;;;;;;;;;6220336;23;20011;-81
2022/11/18 07:43:34;;;;;;;25.17;15.68;;;;;;;;;;6249843;23;20004;-81
2022/11/18 07:46:12;;;;;;;25.92;16.25;;;;;;;;;;6240926;23;20000;-80
2022/11/18 07:48:38;;;;;;;25.77;15.80;;;;;;;;;;6190098;23;20004;-81
2022/11/18 07:51:04;;;;;;;26.73;16.35;;;;;;;;;;6241201;23;20036;-81
2022/11/18 07:53:30;;;;;;;32.20;15.88;;;;;;;;;;6214374;23;20351;-79
2022/11/18 07:55:56;;;;;;;24.77;15.98;;;;;;;;;;6236699;23;20112;-79
2022/11/18 07:58:21;;;;;;;24.30;15.60;;;;;;;;;;6239278;23;20004;-81
2022/11/18 08:00:47;;;;;;;23.65;14.90;;;;;;;;;;6214680;23;20022;-78
2022/11/18 08:03:16;;;;;;;26.58;14.85;;;;;;;;;;6242195;23;20008;-81
2022/11/18 08:05:42;;;;;;;27.20;15.02;;;;;;;;;;6190693;23;20404;-81
2022/11/18 08:08:07;;;;;;;27.98;15.70;;;;;;;;;;6212755;23;20008;-80
2022/11/18 08:10:33;;;;;;;23.95;15.00;;;;;;;;;;6213774;23;20000;-81
2022/11/18 08:12:58;;;;;;;25.55;15.45;;;;;;;;;;6190066;23;20008;-80
2022/11/18 08:15:24;;;;;;;23.02;16.08;;;;;;;;;;6184317;23;20070;-80
2022/11/18 08:17:50;;;;;;;28.30;16.13;;;;;;;;;;6212771;23;20039;-80
2022/11/18 08:20:15;;;;;;;25.13;16.42;;;;;;;;;;6219409;23;20000;-80
2022/11/18 08:22:41;;;;;;;24.40;15.70;;;;;;;;;;6166328;23;20548;-81
2022/11/18 08:25:08;;;;;;;25.70;15.82;;;;;;;;;;6187418;23;20063;-81
2022/11/18 08:27:33;;;;;;;23.63;16.27;;;;;;;;;;6186236;23;20016;-80
2022/11/18 08:29:58;;;;;;;24.20;15.88;;;;;;;;;;6135895;23;20493;-81
2022/11/18 08:32:24;;;;;;;25.67;16.67;;;;;;;;;;6185351;23;20015;-81
2022/11/18 08:34:53;;;;;;;26.05;15.23;;;;;;;;;;6164313;23;20018;-82
2022/11/18 08:37:20;;;;;;;29.52;15.70;;;;;;;;;;6188265;23;20102;-82
2022/11/18 08:39:48;;;;;;;24.88;15.48;;;;;;;;;;6213814;23;20008;-82
2022/11/18 08:42:14;;;;;;;25.60;14.15;;;;;;;;;;6184338;23;20015;-81
2022/11/18 08:44:39;;;;;;;22.25;14.90;;;;;;;;;;6157407;23;20012;-81
2022/11/18 08:47:05;;;;;;;27.48;15.07;;;;;;;;;;6210594;23;20004;-79
2022/11/18 08:49:30;;;;;;;20.77;14.13;;;;;;;;;;6186215;23;20019;-81
2022/11/18 08:51:56;;;;;;;30.67;14.25;;;;;;;;;;6186632;23;19997;-80
2022/11/18 08:54:21;;;;;;;24.02;13.35;;;;;;;;;;6161628;23;20399;-81
2022/11/18 08:56:49;;;;;;;25.15;13.90;;;;;;;;;;6214335;23;20001;-81
2022/11/18 08:59:15;;;;;;;22.70;12.90;;;;;;;;;;6164630;23;20028;-79
2022/11/18 09:01:42;;;;;;;18.98;12.50;;;;;;;;;;6188407;23;20012;-81
2022/11/18 09:04:08;;;;;;;18.02;12.20;;;;;;;;;;6186906;23;20024;-79
2022/11/18 09:06:42;;;;;;;22.50;12.30;;;;;;;;;;6183468;23;20063;-82
2022/11/18 09:09:08;;;;;;;23.60;13.57;;;;;;;;;;6212857;23;20054;-80
2022/11/18 09:11:34;;;;;;;22.25;14.77;;;;;;;;;;6186802;23;20336;-79
2022/11/18 09:14:00;;;;;;;26.42;15.70;;;;;;;;;;6162196;23;20019;-80
2022/11/18 09:16:29;;;;;;;28.00;17.60;;;;;;;;;;6216002;23;20000;-80
2022/11/18 09:18:56;;;;;;;25.40;17.33;;;;;;;;;;6220673;23;20010;-81
2022/11/18 09:21:29;;;;;;;30.70;18.30;;;;;;;;;;6171245;23;20000;-79
2022/11/18 09:23:58;;;;;;;31.20;17.88;;;;;;;;;;6192957;23;20083;-77
2022/11/18 09:26:23;;;;;;;29.10;16.88;;;;;;;;;;6189701;23;20012;-78
2022/11/18 09:28:52;;;;;;;31.83;16.20;;;;;;;;;;6167736;23;20008;-80
2022/11/18 09:31:20;;;;;;;23.90;15.55;;;;;;;;;;6191768;23;20034;-77
2022/11/18 09:33:46;;;;;;;21.42;13.98;;;;;;;;;;6218483;23;20064;-78
2022/11/18 09:36:30;;;;;;;22.27;15.10;;;;;;;;;;6189749;23;20079;-82
2022/11/18 09:38:58;;;;;;;20.98;13.98;;;;;;;;;;6195502;23;20143;-79
2022/11/18 09:41:45;;;;;;;22.83;13.85;;;;;;;;;;6214484;23;20475;-79
2022/11/18 09:44:50;;;;;;;26.10;14.48;;;;;;;;;;6214846;23;20008;-82
2022/11/18 09:47:26;;;;;;;22.02;13.57;;;;;;;;;;6143619;23;20184;-79
2022/11/18 09:50:02;;;;;;;22.17;13.02;;;;;;;;;;6209800;23;20003;-80
2022/11/18 09:52:49;;;;;;;21.90;13.35;;;;;;;;;;6206507;23;20076;-78
2022/11/18 09:55:16;;;;;;;23.88;13.23;;;;;;;;;;6212683;23;20005;-81
2022/11/18 09:57:50;;;;;;;23.33;13.90;;;;;;;;;;6218609;23;20225;-81
2022/11/18 10:00:20;;;;;;;21.08;13.10;;;;;;;;;;6190862;23;20001;-82
2022/11/18 10:03:06;;;;;;;20.30;13.02;;;;;;;;;;6201453;23;20080;-80
2022/11/18 10:05:40;;;;;;;25.17;14.50;;;;;;;;;;6193462;23;20003;-80
2022/11/18 10:08:22;;;;;;;22.75;14.30;;;;;;;;;;6161722;23;20013;-82
2022/11/18 10:11:17;;;;;;;22.55;15.55;;;;;;;;;;6160886;23;20091;-81
2022/11/18 10:13:58;;;;;;;23.52;16.23;;;;;;;;;;6191486;23;20013;-81
2022/11/18 10:16:53;;;;;;;28.00;16.25;;;;;;;;;;6212811;23;20602;-81
2022/11/18 10:19:46;;;;;;;28.98;18.45;;;;;;;;;;6217190;23;20199;-80
2022/11/18 10:22:24;;;;;;;24.90;16.13;;;;;;;;;;6183501;23;20016;-81
2022/11/18 10:24:56;;;;;;;24.10;16.63;;;;;;;;;;6214203;23;20343;-81
2022/11/18 10:27:23;;;;;;;30.95;17.98;;;;;;;;;;6190311;23;20005;-81
2022/11/18 10:29:54;;;;;;;26.20;17.52;;;;;;;;;;6191520;23;20000;-80
2022/11/18 10:32:22;;;;;;;33.47;18.27;;;;;;;;;;6166919;23;20499;-80
2022/11/18 10:35:36;;;;;;;26.85;18.52;;;;;;;;;;6215545;23;20004;-84
2022/11/18 10:38:13;;;;;;;30.42;19.27;;;;;;;;;;6147021;23;20001;-81
2022/11/18 10:40:51;;;;;;;35.35;18.73;;;;;;;;;;6215598;23;20199;-80
2022/11/18 10:43:49;;;;;;;29.58;18.23;;;;;;;;;;6190897;23;20361;-81
2022/11/18 10:46:30;;;;;;;27.23;17.33;;;;;;;;;;6226630;23;20005;-82
2022/11/18 10:49:08;;;;;;;25.98;18.02;;;;;;;;;;6199029;23;20143;-83
2022/11/18 10:51:41;;;;;;;28.00;17.63;;;;;;;;;;6221084;23;20004;-79
2022/11/18 10:54:18;;;;;;;28.08;17.55;;;;;;;;;;6164826;23;20050;-79
2022/11/18 10:57:09;;;;;;;26.67;18.15;;;;;;;;;;6189803;23;20056;-79
2022/11/18 10:59:38;;;;;;;30.83;18.15;;;;;;;;;;6213598;23;20075;-79
2022/11/18 11:02:38;;;;;;;28.98;17.88;;;;;;;;;;6185503;23;20111;-77
2022/11/18 11:05:19;;;;;;;27.98;17.45;;;;;;;;;;6123998;23;20011;-78
2022/11/18 11:07:44;;;;;;;28.92;18.23;;;;;;;;;;6188071;23;20031;-79
2022/11/18 11:10:09;;;;;;;33.53;18.00;;;;;;;;;;6212327;23;20019;-78
2022/11/18 11:12:36;;;;;;;28.02;17.98;;;;;;;;;;6185352;23;20011;-79
2022/11/18 11:15:12;;;;;;;34.38;19.02;;;;;;;;;;6185870;23;20011;-78
2022/11/18 11:17:41;;;;;;;28.55;18.63;;;;;;;;;;6212236;23;20051;-78
2022/11/18 11:20:16;;;;;;;29.00;18.33;;;;;;;;;;6210176;23;20001;-79
2022/11/18 11:22:41;;;;;;;30.67;18.58;;;;;;;;;;6211017;23;20119;-78
2022/11/18 11:25:32;;;;;;;29.75;17.77;;;;;;;;;;6186873;23;20008;-79
2022/11/18 11:28:07;;;;;;;31.08;17.48;;;;;;;;;;6204707;23;20413;-78
2022/11/18 11:30:38;;;;;;;25.58;16.73;;;;;;;;;;6190323;23;20015;-79
2022/11/18 11:33:10;;;;;;;25.77;17.20;;;;;;;;;;6187942;23;20008;-78
2022/11/18 11:35:55;;;;;;;26.67;17.10;;;;;;;;;;6214643;23;20005;-78
2022/11/18 11:38:48;;;;;;;26.13;16.48;;;;;;;;;;6208675;23;20007;-77
2022/11/18 11:41:25;;;;;;;31.10;18.17;;;;;;;;;;6207972;23;20004;-79
2022/11/18 11:44:09;;;;;;;30.17;17.70;;;;;;;;;;6207747;23;20004;-77
2022/11/18 11:46:34;;;;;;;24.80;16.48;;;;;;;;;;6209812;23;19997;-78
2022/11/18 11:49:19;;;;;;;28.88;17.38;;;;;;;;;;6211958;23;20011;-78
2022/11/18 11:51:52;;;;;;;28.52;17.67;;;;;;;;;;6185784;23;20012;-79
2022/11/18 11:54:58;;;;;;;27.60;17.80;;;;;;;;;;6210209;23;20000;-78
2022/11/18 11:57:46;;;;;;;33.22;18.70;;;;;;;;;;6200771;23;20015;-77
2022/11/18 12:00:13;;;;;;;31.20;18.88;;;;;;;;;;6207379;23;20502;-77
2022/11/18 12:02:50;;;;;;;32.03;19.30;;;;;;;;;;6207710;23;20007;-80
2022/11/18 12:05:22;;;;;;;29.80;19.40;;;;;;;;;;6207860;23;20424;-79
2022/11/18 12:07:54;;;;;;;32.90;19.98;;;;;;;;;;6208869;23;20559;-79
2022/11/18 12:10:37;;;;;;;30.98;19.42;;;;;;;;;;6184035;23;20344;-77
2022/11/18 12:13:08;;;;;;;33.63;20.40;;;;;;;;;;6209062;23;19996;-78
2022/11/18 12:15:45;;;;;;;32.92;19.65;;;;;;;;;;6209416;23;20063;-78
2022/11/18 12:18:16;;;;;;;34.80;19.63;;;;;;;;;;6209313;23;20012;-79
2022/11/18 12:20:52;;;;;;;33.08;19.25;;;;;;;;;;6135267;23;20476;-78
2022/11/18 12:23:22;;;;;;;32.65;18.40;;;;;;;;;;6184336;23;20032;-76
2022/11/18 12:25:51;;;;;;;32.25;19.30;;;;;;;;;;6210800;23;20000;-78
2022/11/18 12:28:31;;;;;;;33.13;19.67;;;;;;;;;;6214722;23;20036;-78
2022/11/18 12:31:16;;;;;;;34.45;19.17;;;;;;;;;;6163930;23;20219;-79
2022/11/18 12:34:05;;;;;;;34.60;19.17;;;;;;;;;;6212547;23;20005;-79
2022/11/18 12:36:32;;;;;;;35.67;19.60;;;;;;;;;;6210088;23;20077;-79
2022/11/18 12:39:18;;;;;;;31.48;19.02;;;;;;;;;;6161394;23;20012;-77
2022/11/18 12:44:50;;;;;;;32.47;18.70;;;;;;;;;;6208555;23;20016;-77
2022/11/18 12:47:41;;;;;;;35.63;19.98;;;;;;;;;;5041296;27;2585233;-78
2022/11/18 12:50:11;;;;;;;38.33;19.80;;;;;;;;;;5108152;28;20113;-78
2022/11/18 12:52:36;;;;;;;;;;;;;;;;;;5082893;28;20085;-78
2022/11/18 12:55:03;;;;;;;31.20;19.02;;;;;;;;;;5091181;28;19921;-78
2022/11/18 12:57:33;;;;;;;33.88;19.58;;;;;;;;;;5056241;28;20020;-78
2022/11/18 13:00:13;;;;;;;31.73;20.50;;;;;;;;;;5073990;28;20465;-77
2022/11/18 13:02:39;;;;;;;34.78;20.88;;;;;;;;;;5076245;28;20036;-77
2022/11/18 13:05:17;;;;;;;63.03;30.58;;;;;;;;;;5049751;28;20031;-78
2022/11/18 13:08:13;;;;;;;57.90;32.97;;;;;;;;;;5075325;28;20028;-78
2022/11/18 13:10:50;;;;;;;58.58;27.52;;;;;;;;;;5091809;28;20068;-78
2022/11/18 13:13:25;;;;;;;73.30;33.97;;;;;;;;;;5077121;28;20085;-78
2022/11/18 13:18:49;;;;;;;71.18;33.55;;;;;;;;;;5097450;28;20073;-78
2022/11/18 13:24:04;;;;;;;58.03;29.85;;;;;;;;;;5112113;28;20031;-77
2022/11/18 13:26:33;;;;;;;54.45;29.33;;;;;;;;;;5111640;28;20036;-79
2022/11/18 13:29:16;;;;;;;53.50;28.83;;;;;;;;;;5093058;28;20020;-77
2022/11/18 13:32:18;;;;;;;57.45;28.45;;;;;;;;;;5114920;28;20027;-78
2022/11/18 13:34:49;;;;;;;46.60;26.50;;;;;;;;;;5099052;28;20361;-79
2022/11/18 13:37:16;;;;;;;;;;;;;;;;;;5110619;28;20062;-81
2022/11/18 13:39:42;;;;;;;46.22;24.70;;;;;;;;;;5091923;28;20328;-78
2022/11/18 13:42:30;;;;;;;54.88;28.50;;;;;;;;;;5110236;28;20043;-79
2022/11/18 13:45:00;;;;;;;62.20;31.90;;;;;;;;;;5075117;28;20456;-79
2022/11/18 13:47:35;;;;;;;118.30;46.08;;;;;;;;;;5106375;28;20076;-80
2022/11/18 13:50:04;;;;;;;75.68;36.35;;;;;;;;;;5065766;28;20439;-78
2022/11/18 13:52:34;;;;;;;62.20;34.33;;;;;;;;;;5110073;28;20111;-78
2022/11/18 13:55:00;;;;;;;66.25;35.70;;;;;;;;;;5109124;28;20032;-78
2022/11/18 13:57:27;;;;;;;69.95;37.58;;;;;;;;;;5086155;28;20024;-78
2022/11/18 13:59:53;;;;;;;61.38;34.40;;;;;;;;;;5078728;28;20032;-78
2022/11/18 14:02:19;;;;;;;56.65;31.45;;;;;;;;;;5069209;28;20051;-77
2022/11/18 14:04:55;;;;;;;54.78;32.10;;;;;;;;;;5078601;28;20070;-79
2022/11/18 14:07:33;;;;;;;56.00;32.72;;;;;;;;;;5078546;28;20028;-78
2022/11/18 14:10:00;;;;;;;55.00;31.63;;;;;;;;;;5079709;28;20032;-78
2022/11/18 14:12:28;;;;;;;48.55;28.13;;;;;;;;;;5080475;28;20062;-78
2022/11/18 14:15:21;;;;;;;49.50;27.85;;;;;;;;;;5079132;28;20036;-79
2022/11/18 14:17:56;;;;;;;46.75;26.13;;;;;;;;;;5063029;28;20075;-78
2022/11/18 14:20:22;;;;;;;47.08;26.20;;;;;;;;;;5062047;28;20024;-79
2022/11/18 14:22:53;;;;;;;53.10;28.70;;;;;;;;;;5061528;28;20024;-79
2022/11/18 14:25:23;;;;;;;56.45;30.88;;;;;;;;;;5062250;28;20085;-78
2022/11/18 14:27:53;;;;;;;59.77;30.07;;;;;;;;;;5096331;28;20028;-77
2022/11/18 14:30:35;;;;;;;53.97;29.80;;;;;;;;;;5094978;28;20579;-77
2022/11/18 14:33:20;;;;;;;51.08;28.73;;;;;;;;;;5096405;28;20055;-78
2022/11/18 14:35:53;;;;;;;59.58;30.30;;;;;;;;;;5063846;28;20068;-78
2022/11/18 14:38:21;;;;;;;54.97;30.38;;;;;;;;;;5056330;28;20062;-78
2022/11/18 14:40:55;;;;;;;55.10;30.55;;;;;;;;;;5056278;28;20131;-78
2022/11/18 14:43:21;;;;;;;69.30;37.17;;;;;;;;;;5040130;28;20403;-79
2022/11/18 14:45:46;;;;;;;65.20;37.03;;;;;;;;;;5019533;28;20045;-78
2022/11/18 14:48:12;;;;;;;65.88;36.13;;;;;;;;;;5033644;28;20090;-77
2022/11/18 14:50:38;;;;;;;71.35;37.22;;;;;;;;;;5068680;28;20409;-79
2022/11/18 14:53:04;;;;;;;63.85;35.97;;;;;;;;;;5077247;28;20092;-79
2022/11/18 14:55:29;;;;;;;71.25;38.28;;;;;;;;;;5077207;28;20055;-78
2022/11/18 14:57:54;;;;;;;75.28;39.95;;;;;;;;;;5074523;28;20412;-79
2022/11/18 15:00:20;;;;;;;68.78;36.05;;;;;;;;;;5074566;28;20036;-78
2022/11/18 15:02:45;;;;;;;68.45;33.28;;;;;;;;;;5075346;28;20058;-77
2022/11/18 15:05:11;;;;;;;64.88;34.63;;;;;;;;;;5074251;28;20024;-77
2022/11/18 15:07:36;;;;;;;75.05;36.20;;;;;;;;;;5071608;28;20100;-78
2022/11/18 15:10:02;;;;;;;68.13;33.90;;;;;;;;;;5074118;28;20028;-77
2022/11/18 15:12:28;;;;;;;73.32;35.42;;;;;;;;;;5061079;28;20048;-80